Time;durP1;ratioP1;P1;durP2;ratioP2;P2;SDS_P1;SDS_P2;PMS_P1;PMS_P2;Temp;Humidity;BMP_temperature;BMP_pressure;BME280_temperature;BME280_humidity;BME280_pressure;Samples;Min_cycle;Max_cycle;Signal;HPM_P1;HPM_P2
2019/12/08 00:01:02;;;;;;;14.1;8.5;;;;;;;;;;;;;
2019/12/08 00:03:22;;;;;;;14.2;8.2;;;;;;;;;;;;;
2019/12/08 00:05:49;;;;;;;13.2;8.1;;;;;;;;;;;;;
2019/12/08 00:08:11;;;;;;;14.5;8.8;;;;;;;;;;;;;
2019/12/08 00:10:35;;;;;;;13;8.4;;;;;;;;;;;;;
2019/12/08 00:12:58;;;;;;;14;8.5;;;;;;;;;;;;;
2019/12/08 00:15:35;;;;;;;11.5;7.6;;;;;;;;;;;;;
2019/12/08 00:18:05;;;;;;;10.1;6.3;;;;;;;;;;;;;
2019/12/08 00:21:50;;;;;;;10.4;6.6;;;;;;;;;;;;;
2019/12/08 00:23:28;;;;;;;9.7;6.2;;;;;;;;;;;;;
2019/12/08 00:25:17;;;;;;;7.8;4.9;;;;;;;;;;;;;
2019/12/08 00:27:54;;;;;;;8.9;5.8;;;;;;;;;;;;;
2019/12/08 00:30:23;;;;;;;7.2;5.3;;;;;;;;;;;;;
2019/12/08 00:32:48;;;;;;;10.6;6.8;;;;;;;;;;;;;
2019/12/08 00:35:17;;;;;;;8.8;6.1;;;;;;;;;;;;;
2019/12/08 00:37:41;;;;;;;11.1;9.3;;;;;;;;;;;;;
2019/12/08 00:40:07;;;;;;;8.3;5.3;;;;;;;;;;;;;
2019/12/08 00:42:31;;;;;;;8;5.8;;;;;;;;;;;;;
2019/12/08 00:45:01;;;;;;;9.3;6;;;;;;;;;;;;;
2019/12/08 00:47:21;;;;;;;7.3;5.3;;;;;;;;;;;;;
2019/12/08 00:49:47;;;;;;;10.1;6;;;;;;;;;;;;;
2019/12/08 00:52:12;;;;;;;9.8;5.6;;;;;;;;;;;;;
2019/12/08 00:54:45;;;;;;;9;5.7;;;;;;;;;;;;;
2019/12/08 00:57:06;;;;;;;9.3;6.4;;;;;;;;;;;;;
2019/12/08 00:59:35;;;;;;;8.9;5.5;;;;;;;;;;;;;
2019/12/08 01:01:58;;;;;;;7.1;5.5;;;;;;;;;;;;;
2019/12/08 01:04:23;;;;;;;8.2;5.3;;;;;;;;;;;;;
2019/12/08 01:06:52;;;;;;;9;5.3;;;;;;;;;;;;;
2019/12/08 01:09:19;;;;;;;9.3;6.3;;;;;;;;;;;;;
2019/12/08 01:11:40;;;;;;;10.1;6.2;;;;;;;;;;;;;
2019/12/08 01:14:05;;;;;;;9.1;5.3;;;;;;;;;;;;;
2019/12/08 01:16:36;;;;;;;10.8;5.3;;;;;;;;;;;;;
2019/12/08 01:19:00;;;;;;;7.2;4.5;;;;;;;;;;;;;
2019/12/08 01:21:41;;;;;;;8.4;4.5;;;;;;;;;;;;;
2019/12/08 01:23:52;;;;;;;7.8;5.1;;;;;;;;;;;;;
2019/12/08 01:26:10;;;;;;;8.3;5.1;;;;;;;;;;;;;
2019/12/08 01:28:38;;;;;;;8.7;5.6;;;;;;;;;;;;;
2019/12/08 01:31:02;;;;;;;8.1;4.8;;;;;;;;;;;;;
2019/12/08 01:33:27;;;;;;;7.6;4.4;;;;;;;;;;;;;
2019/12/08 01:35:51;;;;;;;7.2;4.4;;;;;;;;;;;;;
2019/12/08 01:38:20;;;;;;;8.5;4.9;;;;;;;;;;;;;
2019/12/08 01:40:46;;;;;;;5.4;3.5;;;;;;;;;;;;;
2019/12/08 01:43:14;;;;;;;5.2;3.4;;;;;;;;;;;;;
2019/12/08 01:45:35;;;;;;;5.5;3.5;;;;;;;;;;;;;
2019/12/08 01:48:01;;;;;;;7;3.7;;;;;;;;;;;;;
2019/12/08 01:50:26;;;;;;;7.2;4;;;;;;;;;;;;;
2019/12/08 01:52:53;;;;;;;6.8;3.9;;;;;;;;;;;;;
2019/12/08 01:55:17;;;;;;;5.8;3.7;;;;;;;;;;;;;
2019/12/08 01:57:41;;;;;;;6.5;3.7;;;;;;;;;;;;;
2019/12/08 02:00:07;;;;;;;8;4.2;;;;;;;;;;;;;
2019/12/08 02:02:40;;;;;;;6.3;3.7;;;;;;;;;;;;;
2019/12/08 02:05:00;;;;;;;7.9;4;;;;;;;;;;;;;
2019/12/08 02:07:26;;;;;;;6.7;3.9;;;;;;;;;;;;;
2019/12/08 02:09:52;;;;;;;6.7;3.8;;;;;;;;;;;;;
2019/12/08 02:12:18;;;;;;;7.2;4.2;;;;;;;;;;;;;
2019/12/08 02:14:44;;;;;;;8.8;4.1;;;;;;;;;;;;;
2019/12/08 02:17:17;;;;;;;6.2;3.5;;;;;;;;;;;;;
2019/12/08 02:19:56;;;;;;;5.9;3.4;;;;;;;;;;;;;
2019/12/08 02:22:07;;;;;;;6.5;3.3;;;;;;;;;;;;;
2019/12/08 02:24:34;;;;;;;5.2;4;;;;;;;;;;;;;
2019/12/08 02:26:58;;;;;;;4.5;3;;;;;;;;;;;;;
2019/12/08 02:29:26;;;;;;;6.2;3.5;;;;;;;;;;;;;
2019/12/08 02:31:48;;;;;;;4.7;3.2;;;;;;;;;;;;;
2019/12/08 02:34:14;;;;;;;7.3;4.8;;;;;;;;;;;;;
2019/12/08 02:36:43;;;;;;;6.5;3.5;;;;;;;;;;;;;
2019/12/08 02:39:09;;;;;;;5.2;3.3;;;;;;;;;;;;;
2019/12/08 02:41:30;;;;;;;4.8;3.3;;;;;;;;;;;;;
2019/12/08 02:43:55;;;;;;;6.3;3.9;;;;;;;;;;;;;
2019/12/08 02:46:20;;;;;;;7.1;3.6;;;;;;;;;;;;;
2019/12/08 02:51:18;;;;;;;5.7;3.6;;;;;;;;;;;;;
2019/12/08 02:53:35;;;;;;;5.3;3.5;;;;;;;;;;;;;
2019/12/08 02:56:04;;;;;;;6.8;3.2;;;;;;;;;;;;;
2019/12/08 02:58:27;;;;;;;6;3;;;;;;;;;;;;;
2019/12/08 03:00:53;;;;;;;4.7;3.1;;;;;;;;;;;;;
2019/12/08 03:03:17;;;;;;;6.6;3.2;;;;;;;;;;;;;
2019/12/08 03:05:42;;;;;;;4.9;3;;;;;;;;;;;;;
2019/12/08 03:08:14;;;;;;;6.2;3.1;;;;;;;;;;;;;
2019/12/08 03:10:35;;;;;;;4.3;2.5;;;;;;;;;;;;;
2019/12/08 03:13:06;;;;;;;5;2.7;;;;;;;;;;;;;
2019/12/08 03:15:29;;;;;;;4.9;2.5;;;;;;;;;;;;;
2019/12/08 03:17:55;;;;;;;3.8;2.1;;;;;;;;;;;;;
2019/12/08 03:20:24;;;;;;;3.9;2.7;;;;;;;;;;;;;
2019/12/08 03:22:49;;;;;;;5.9;2.9;;;;;;;;;;;;;
2019/12/08 03:25:15;;;;;;;4.2;2.6;;;;;;;;;;;;;
2019/12/08 03:27:41;;;;;;;4;2.6;;;;;;;;;;;;;
2019/12/08 03:30:06;;;;;;;3.7;2.6;;;;;;;;;;;;;
2019/12/08 03:32:30;;;;;;;4.2;2.7;;;;;;;;;;;;;
2019/12/08 03:35:04;;;;;;;4.5;2.8;;;;;;;;;;;;;
2019/12/08 03:37:21;;;;;;;4.8;2.7;;;;;;;;;;;;;
2019/12/08 03:39:46;;;;;;;4.5;2.7;;;;;;;;;;;;;
2019/12/08 03:42:10;;;;;;;4.2;2.8;;;;;;;;;;;;;
2019/12/08 03:44:35;;;;;;;5.4;3.2;;;;;;;;;;;;;
2019/12/08 03:47:05;;;;;;;15.3;9.2;;;;;;;;;;;;;
2019/12/08 03:49:26;;;;;;;28;19.5;;;;;;;;;;;;;
2019/12/08 03:52:23;;;;;;;14.3;10;;;;;;;;;;;;;
2019/12/08 03:54:48;;;;;;;8.8;6.4;;;;;;;;;;;;;
2019/12/08 03:57:17;;;;;;;6.9;4.4;;;;;;;;;;;;;
2019/12/08 03:59:48;;;;;;;9.6;6.2;;;;;;;;;;;;;
2019/12/08 04:05:06;;;;;;;6.2;4.2;;;;;;;0.4;89.8584;938.1566;;;;
2019/12/08 04:07:38;;;;;;;5.9;4;;;;;;;0.43;89.79688;938.0842;;;;
2019/12/08 04:10:10;;;;;;;4.8;3.5;;;;;;;0.34;89.90039;938.15;;;;
2019/12/08 04:12:33;;;;;;;5.6;3.3;;;;;;;0.25;90.22656;938.1475;;;;
2019/12/08 04:14:58;;;;;;;6;3.9;;;;;;;0.18;90.36719;938.1305;;;;
2019/12/08 04:17:28;;;;;;;6.1;3.6;;;;;;;0.01;91.17773;938.0455;;;;
2019/12/08 04:19:50;;;;;;;5.8;4;;;;;;;0.02;91.56055;938.0894;;;;
2019/12/08 04:22:15;;;;;;;8.9;4.8;;;;;;;0.02;91.6582;938.0281;;;;
2019/12/08 04:24:44;;;;;;;5.5;3.9;;;;;;;0.06;91.71484;938.035;;;;
2019/12/08 04:27:09;;;;;;;5.5;3.6;;;;;;;0.13;91.61914;938.1573;;;;
2019/12/08 04:29:40;;;;;;;6.2;4;;;;;;;0.31;90.76465;938.0947;;;;
2019/12/08 04:32:08;;;;;;;5.3;3.7;;;;;;;0.53;90.08398;938.0745;;;;
2019/12/08 04:34:34;;;;;;;5.1;3.1;;;;;;;0.65;89.29688;938.0701;;;;
2019/12/08 04:36:58;;;;;;;4;2.9;;;;;;;0.62;89.3916;938.0797;;;;
2019/12/08 04:39:26;;;;;;;4.8;3;;;;;;;0.7;89.53125;938.016;;;;
2019/12/08 04:41:59;;;;;;;4.7;2.8;;;;;;;0.89;88.62207;937.9889;;;;
2019/12/08 04:47:13;;;;;;;5.2;3.4;;;;;;;0.96;86.7959;937.9067;;;;
2019/12/08 04:49:43;;;;;;;4.2;3.3;;;;;;;1.02;85.90234;937.8522;;;;
2019/12/08 04:52:07;;;;;;;4.7;3.4;;;;;;;1.04;85.72754;937.865;;;;
2019/12/08 04:54:35;;;;;;;4.5;3.1;;;;;;;1.11;85.39551;937.9849;;;;
2019/12/08 04:57:02;;;;;;;4.7;3.2;;;;;;;1.12;85.04004;937.9147;;;;
2019/12/08 04:59:35;;;;;;;5;3;;;;;;;0.99;86.35645;937.8392;;;;
2019/12/08 05:02:14;;;;;;;4.7;2.8;;;;;;;0.85;86.8623;937.7866;;;;
2019/12/08 05:04:41;;;;;;;3.6;2.6;;;;;;;0.79;86.88281;937.6989;;;;
2019/12/08 05:07:07;;;;;;;3.7;2.9;;;;;;;0.85;86.33789;937.7034;;;;
2019/12/08 05:09:35;;;;;;;4.3;3.5;;;;;;;0.73;87.37402;937.6675;;;;
2019/12/08 05:12:03;;;;;;;5.6;4.2;;;;;;;0.6;87.71387;937.6412;;;;
2019/12/08 05:14:30;;;;;;;5.6;4.1;;;;;;;0.57;87.93164;937.6473;;;;
2019/12/08 05:16:58;;;;;;;5;3.6;;;;;;;0.64;87.15234;937.5854;;;;
2019/12/08 05:19:30;;;;;;;5.4;4.1;;;;;;;0.67;86.80273;937.5645;;;;
2019/12/08 05:21:55;;;;;;;6.2;4.6;;;;;;;0.57;86.73828;937.3787;;;;
2019/12/08 05:24:21;;;;;;;5.2;4.1;;;;;;;0.38;87.8125;937.3814;;;;
2019/12/08 05:27:04;;;;;;;5.9;4.3;;;;;;;0.29;88.25195;937.3892;;;;
2019/12/08 05:29:15;;;;;;;6.6;5.9;;;;;;;0.15;89.03711;937.3942;;;;
2019/12/08 05:31:40;;;;;;;5.3;3.3;;;;;;;0.11;89.33984;937.3398;;;;
2019/12/08 05:34:04;;;;;;;5.2;3.2;;;;;;;0.12;89.3623;937.3269;;;;
2019/12/08 05:36:29;;;;;;;4.5;3;;;;;;;0.02;89.71094;937.3631;;;;
2019/12/08 05:39:02;;;;;;;3.6;2.7;;;;;;;0.02;89.91113;937.2823;;;;
2019/12/08 05:41:25;;;;;;;4.6;2.7;;;;;;;0.05;90.10449;937.2475;;;;
2019/12/08 05:43:51;;;;;;;3.8;2.8;;;;;;;0.03;90.11426;937.2678;;;;
2019/12/08 05:46:17;;;;;;;4.3;3;;;;;;;0.03;89.85547;937.2122;;;;
2019/12/08 05:48:47;;;;;;;4.4;3;;;;;;;0.13;89.24316;937.2631;;;;
2019/12/08 05:51:11;;;;;;;4.5;2.9;;;;;;;-0.02;89.84766;937.2122;;;;
2019/12/08 05:53:38;;;;;;;4.6;2.8;;;;;;;0.02;89.67773;937.2363;;;;
2019/12/08 05:56:07;;;;;;;4.5;3.1;;;;;;;0.01;89.70898;937.1614;;;;
2019/12/08 05:58:33;;;;;;;4.4;3;;;;;;;0.17;89.08398;937.2695;;;;
2019/12/08 06:00:57;;;;;;;5.2;3.1;;;;;;;0.26;88.82617;937.2;;;;
2019/12/08 06:03:27;;;;;;;5.6;3.8;;;;;;;0.49;87.43555;937.2254;;;;
2019/12/08 06:05:53;;;;;;;3.8;3.2;;;;;;;0.48;86.53906;937.1833;;;;
2019/12/08 06:08:22;;;;;;;6.6;4.2;;;;;;;0.43;86.88672;937.1537;;;;
2019/12/08 06:10:46;;;;;;;10;6.8;;;;;;;0.45;86.94824;937.1141;;;;
2019/12/08 06:13:15;;;;;;;11.6;7.4;;;;;;;0.52;86.79395;937.1406;;;;
2019/12/08 06:15:48;;;;;;;11.6;7.2;;;;;;;0.58;86.14844;937.188;;;;
2019/12/08 06:18:16;;;;;;;8.7;6.1;;;;;;;0.57;86.31445;937.1742;;;;
2019/12/08 06:20:45;;;;;;;11.3;8.2;;;;;;;0.52;86.28125;937.149;;;;
2019/12/08 06:23:10;;;;;;;9.9;7.1;;;;;;;0.51;85.84375;937.1144;;;;
2019/12/08 06:25:39;;;;;;;7.8;6.5;;;;;;;0.31;86.4502;937.0705;;;;
2019/12/08 06:28:11;;;;;;;9.4;6.8;;;;;;;0.33;86.52051;937.0692;;;;
2019/12/08 06:30:39;;;;;;;10;7.5;;;;;;;0.34;86.5918;937.0687;;;;
2019/12/08 06:33:03;;;;;;;11.5;8.8;;;;;;;0.38;86.61914;936.9467;;;;
2019/12/08 06:35:30;;;;;;;13.3;9.7;;;;;;;0.25;86.88477;936.8879;;;;
2019/12/08 06:37:57;;;;;;;20.6;13.8;;;;;;;0.23;87.02441;936.9111;;;;
2019/12/08 06:40:22;;;;;;;15.2;10.1;;;;;;;0.01;87.5791;936.8747;;;;
2019/12/08 06:42:53;;;;;;;9.6;6.7;;;;;;;-0.03;88.19531;936.8797;;;;
2019/12/08 06:45:20;;;;;;;7.1;5.2;;;;;;;0.06;87.46777;936.8597;;;;
2019/12/08 06:47:46;;;;;;;7;4.1;;;;;;;-0.13;87.94141;936.7922;;;;
2019/12/08 06:50:19;;;;;;;7.5;4.3;;;;;;;-0.19;88.80762;936.8059;;;;
2019/12/08 06:52:55;;;;;;;8.4;5;;;;;;;-0.08;89.79883;936.8563;;;;
2019/12/08 06:55:12;;;;;;;9.7;5.9;;;;;;;-0.02;88.93262;936.8003;;;;
2019/12/08 06:57:35;;;;;;;8.8;5.6;;;;;;;0.07;88.61719;936.808;;;;
2019/12/08 07:00:04;;;;;;;6.7;3.8;;;;;;;0.19;87.5625;936.7703;;;;
2019/12/08 07:02:35;;;;;;;4.9;3.4;;;;;;;0.38;86.70996;936.8466;;;;
2019/12/08 07:05:06;;;;;;;5.9;3.6;;;;;;;0.53;85.88086;936.8183;;;;
2019/12/08 07:07:31;;;;;;;6;3.8;;;;;;;0.68;85.13086;936.8041;;;;
2019/12/08 07:10:02;;;;;;;6;4.2;;;;;;;0.7;84.97852;936.6655;;;;
2019/12/08 07:12:30;;;;;;;14.4;5.5;;;;;;;0.63;85.90137;936.7454;;;;
2019/12/08 07:15:00;;;;;;;6.8;5.5;;;;;;;0.73;84.98438;936.7496;;;;
2019/12/08 07:17:27;;;;;;;8.4;6;;;;;;;0.92;83.61523;936.7519;;;;
2019/12/08 07:19:55;;;;;;;8.3;6;;;;;;;0.99;82.88184;936.7643;;;;
2019/12/08 07:22:26;;;;;;;6.6;5;;;;;;;0.88;82.73828;936.7275;;;;
2019/12/08 07:24:55;;;;;;;8.7;6.6;;;;;;;0.68;83.82617;936.6865;;;;
2019/12/08 07:27:19;;;;;;;8.6;6.7;;;;;;;0.55;84.58203;936.6744;;;;
2019/12/08 07:29:46;;;;;;;7.8;6.1;;;;;;;0.54;85.52832;936.6661;;;;
2019/12/08 07:32:19;;;;;;;8;5.8;;;;;;;0.71;86.18359;936.641;;;;
2019/12/08 07:34:50;;;;;;;8.3;5.5;;;;;;;0.79;85.12012;936.6929;;;;
2019/12/08 07:37:27;;;;;;;7.8;5.7;;;;;;;1.04;84.46484;936.6608;;;;
2019/12/08 07:40:13;;;;;;;8.9;6.4;;;;;;;1.06;83.32031;936.5557;;;;
2019/12/08 07:42:32;;;;;;;10.1;6.9;;;;;;;1.21;82.68945;936.5655;;;;
2019/12/08 07:45:03;;;;;;;8.3;6.4;;;;;;;1.16;83.53027;936.5248;;;;
2019/12/08 07:47:29;;;;;;;9.2;6.8;;;;;;;1.33;81.58594;936.4755;;;;
2019/12/08 07:49:58;;;;;;;13.8;8.9;;;;;;;1.35;81.43262;936.5209;;;;
2019/12/08 07:52:24;;;;;;;26;15.4;;;;;;;1.45;81.25098;936.5528;;;;
2019/12/08 07:55:25;;;;;;;47.3;32.5;;;;;;;1.6;80.87793;936.4843;;;;
2019/12/08 07:57:54;;;;;;;24.8;19.3;;;;;;;1.43;81.68457;936.4713;;;;
2019/12/08 08:00:29;;;;;;;29.4;18;;;;;;;1.62;81.47363;936.3832;;;;
2019/12/08 08:02:56;;;;;;;17;10.4;;;;;;;2.01;79.57715;936.3572;;;;
2019/12/08 08:05:22;;;;;;;14.9;9.9;;;;;;;2.55;77.65234;936.1776;;;;
2019/12/08 08:07:48;;;;;;;11.5;8.9;;;;;;;3.18;74.73535;936.2535;;;;
2019/12/08 08:10:19;;;;;;;12.5;10;;;;;;;3.17;74.28711;936.1644;;;;
2019/12/08 08:12:43;;;;;;;12;9.7;;;;;;;3.71;72.19922;936.1725;;;;
2019/12/08 08:15:14;;;;;;;12.7;10.2;;;;;;;3.63;71.87109;936.2605;;;;
2019/12/08 08:17:38;;;;;;;10.4;8;;;;;;;3.53;72.80957;936.1641;;;;
2019/12/08 08:20:05;;;;;;;11.3;7.6;;;;;;;4.04;71.13184;936.2092;;;;
2019/12/08 08:22:39;;;;;;;11.7;8.5;;;;;;;4.44;69.66895;936.1705;;;;
2019/12/08 08:25:21;;;;;;;9.1;6.8;;;;;;;4.81;68.12793;935.9724;;;;
2019/12/08 08:27:34;;;;;;;8.4;6.3;;;;;;;4.75;68.18652;936.1755;;;;
2019/12/08 08:29:57;;;;;;;6;4.6;;;;;;;4.82;68.20801;936.0948;;;;
2019/12/08 08:32:30;;;;;;;7.7;5.7;;;;;;;5.11;67.375;936.0309;;;;
2019/12/08 08:35:02;;;;;;;5;4;;;;;;;5.1;67.17188;936.0048;;;;
2019/12/08 08:37:32;;;;;;;5.5;4.6;;;;;;;4.55;68.80859;936.0017;;;;
2019/12/08 08:39:58;;;;;;;8.2;6.1;;;;;;;3.95;71.65625;936.0408;;;;
2019/12/08 08:42:28;;;;;;;9.9;8.1;;;;;;;3.74;72.85645;936.0167;;;;
2019/12/08 08:44:55;;;;;;;11.3;8.7;;;;;;;3.75;73.46777;936.0203;;;;
2019/12/08 08:47:23;;;;;;;12.1;9.1;;;;;;;3.78;73.49316;936.0054;;;;
2019/12/08 08:49:47;;;;;;;12.5;8.7;;;;;;;3.71;73.76172;935.974;;;;
2019/12/08 08:52:19;;;;;;;11.7;7.7;;;;;;;3.59;73.91113;935.9497;;;;
2019/12/08 08:57:22;;;;;;;12.8;9.7;;;;;;;3.59;74.70898;936.0221;;;;
2019/12/08 08:59:47;;;;;;;11.9;8.5;;;;;;;3.49;75.22949;935.9456;;;;
2019/12/08 09:03:07;;;;;;;14.3;9.5;;;;;;;3.38;76.27637;935.986;;;;
2019/12/08 09:04:42;;;;;;;13;9.6;;;;;;;3.5;75.92676;935.9979;;;;
2019/12/08 09:07:13;;;;;;;15.4;9.3;;;;;;;3.55;75.73438;935.9561;;;;
2019/12/08 09:09:38;;;;;;;13.7;9.8;;;;;;;3.68;75.93652;936.022;;;;
2019/12/08 09:12:04;;;;;;;11.6;8.4;;;;;;;3.92;74.83203;935.972;;;;
2019/12/08 09:15:22;;;;;;;12.9;9;;;;;;;4.12;74.24805;936.0627;;;;
2019/12/08 09:16:58;;;;;;;11.1;8.2;;;;;;;4.29;73.80762;936.0232;;;;
2019/12/08 09:19:33;;;;;;;8.8;6.9;;;;;;;4.5;72.68164;935.9797;;;;
2019/12/08 09:22:02;;;;;;;9.3;7.1;;;;;;;4.68;72.17383;935.9756;;;;
2019/12/08 09:24:29;;;;;;;9.8;7.8;;;;;;;4.86;72.22559;935.9492;;;;
2019/12/08 09:27:11;;;;;;;14.3;9.1;;;;;;;5.01;72.74707;935.9739;;;;
2019/12/08 09:29:35;;;;;;;10.8;7.5;;;;;;;5.17;71.39941;935.8281;;;;
2019/12/08 09:32:06;;;;;;;9.1;6.7;;;;;;;5.26;70.98535;935.8964;;;;
2019/12/08 09:34:28;;;;;;;9.8;7;;;;;;;5.44;72.06543;935.8719;;;;
2019/12/08 09:36:56;;;;;;;9.7;6.3;;;;;;;5.52;70.39746;935.873;;;;
2019/12/08 09:39:19;;;;;;;5.9;4;;;;;;;5.62;65.7627;935.7565;;;;
2019/12/08 09:41:47;;;;;;;6.8;4.4;;;;;;;5.75;65.48926;935.8147;;;;
2019/12/08 09:44:10;;;;;;;7;4.9;;;;;;;5.86;65.92285;935.7906;;;;
2019/12/08 09:46:36;;;;;;;6.4;4.4;;;;;;;5.92;64.98438;935.7726;;;;
2019/12/08 09:49:00;;;;;;;6.7;4.4;;;;;;;6;65.78711;935.7798;;;;
2019/12/08 09:52:12;;;;;;;9.1;5.5;;;;;;;6.08;65.17676;935.7899;;;;
2019/12/08 09:54:22;;;;;;;12.8;8.7;;;;;;;5.97;65.58984;935.7436;;;;
2019/12/08 09:56:54;;;;;;;18.1;11.3;;;;;;;5.94;67.62012;935.657;;;;
2019/12/08 09:59:19;;;;;;;17.7;12.8;;;;;;;5.82;68.16504;935.6642;;;;
2019/12/08 10:01:44;;;;;;;17.4;11.8;;;;;;;5.88;68.58008;935.6584;;;;
2019/12/08 10:04:13;;;;;;;17.8;11.5;;;;;;;5.93;68.12598;935.5722;;;;
2019/12/08 10:06:41;;;;;;;15.8;10.8;;;;;;;6.13;67.34375;935.5326;;;;
2019/12/08 10:09:13;;;;;;;13.9;9.6;;;;;;;6.23;66.47754;935.4645;;;;
2019/12/08 10:11:44;;;;;;;16.2;8.7;;;;;;;5.94;66.01465;935.3828;;;;
2019/12/08 10:14:10;;;;;;;12.2;7.8;;;;;;;6.1;66.8877;935.3027;;;;
2019/12/08 10:16:42;;;;;;;10.5;6.8;;;;;;;6.27;64.59668;935.2544;;;;
2019/12/08 10:19:13;;;;;;;10.1;6.3;;;;;;;6.5;63.5791;935.1777;;;;
2019/12/08 10:21:42;;;;;;;13.2;7.6;;;;;;;6.65;63.90723;935.1295;;;;
2019/12/08 10:24:13;;;;;;;12.1;6.5;;;;;;;6.75;62.30273;935.0767;;;;
2019/12/08 10:26:41;;;;;;;13;6.5;;;;;;;6.87;63;934.9875;;;;
2019/12/08 10:29:10;;;;;;;8.2;5.4;;;;;;;6.97;61.70117;934.8348;;;;
2019/12/08 10:31:38;;;;;;;9.7;5.3;;;;;;;6.93;61.0957;934.9252;;;;
2019/12/08 10:34:13;;;;;;;9.6;5.6;;;;;;;7.03;61.24609;934.7459;;;;
2019/12/08 10:36:36;;;;;;;12.5;5.2;;;;;;;7.2;61.56445;934.7266;;;;
2019/12/08 10:39:05;;;;;;;10.6;4;;;;;;;7.35;58.70703;934.6572;;;;
2019/12/08 10:41:36;;;;;;;23.3;3.3;;;;;;;7.55;57.44141;934.7166;;;;
2019/12/08 10:44:02;;;;;;;15.7;3.5;;;;;;;7.81;56.75;934.6541;;;;
2019/12/08 10:46:30;;;;;;;9.6;2.9;;;;;;;8.01;55.81152;934.7372;;;;
2019/12/08 10:48:57;;;;;;;6.4;3.5;;;;;;;8.11;55.63281;934.7349;;;;
2019/12/08 10:51:28;;;;;;;5.3;3.1;;;;;;;8.12;55.89551;934.7421;;;;
2019/12/08 10:53:54;;;;;;;6.3;3;;;;;;;8.24;57.20508;934.6051;;;;
2019/12/08 10:56:22;;;;;;;5;3;;;;;;;8.27;58.23047;934.6506;;;;
2019/12/08 10:58:46;;;;;;;6.6;2.7;;;;;;;8.19;59.98047;934.6486;;;;
2019/12/08 11:01:11;;;;;;;4.1;3.1;;;;;;;8.2;62.21973;934.4647;;;;
2019/12/08 11:03:41;;;;;;;5.1;2.9;;;;;;;8.26;60.58105;934.5664;;;;
2019/12/08 11:06:06;;;;;;;5.2;3;;;;;;;8.34;59.68359;934.5105;;;;
2019/12/08 11:08:34;;;;;;;5;2.9;;;;;;;8.44;57.82324;934.4534;;;;
2019/12/08 11:11:00;;;;;;;5.6;3.2;;;;;;;8.58;56.46484;934.4849;;;;
2019/12/08 11:13:30;;;;;;;5.4;3;;;;;;;8.59;55.58105;934.3588;;;;
2019/12/08 11:15:53;;;;;;;4.1;3.1;;;;;;;8.71;54.4248;934.4119;;;;
2019/12/08 11:18:21;;;;;;;3.9;2.7;;;;;;;8.73;53.97266;934.4066;;;;
2019/12/08 11:20:47;;;;;;;5.5;2.9;;;;;;;8.81;54.94922;934.4037;;;;
2019/12/08 11:23:15;;;;;;;4.6;3;;;;;;;9.02;53.82715;934.4528;;;;
2019/12/08 11:25:44;;;;;;;6.2;3.7;;;;;;;9.13;55.69629;934.3362;;;;
2019/12/08 11:28:07;;;;;;;3.8;2.8;;;;;;;8.98;53.7998;934.4069;;;;
2019/12/08 11:33:27;;;;;;;4.8;1.9;;;;;;;9.34;51.30566;934.3875;;;;
2019/12/08 11:35:48;;;;;;;3.2;1.8;;;;;;;9.43;50.09766;934.3351;;;;
2019/12/08 11:38:18;;;;;;;3.4;1.9;;;;;;;9.51;48.71777;934.3492;;;;
2019/12/08 11:40:45;;;;;;;4.5;2.2;;;;;;;9.54;48.65234;934.1555;;;;
2019/12/08 11:43:16;;;;;;;4.6;2.5;;;;;;;9.51;49.9248;934.2022;;;;
2019/12/08 11:45:43;;;;;;;5.1;2.8;;;;;;;9.55;50.30469;934.1866;;;;
2019/12/08 11:48:10;;;;;;;5.7;2.9;;;;;;;9.67;51.33301;934.1502;;;;
2019/12/08 11:50:37;;;;;;;4.4;2.4;;;;;;;9.82;49.4707;934.0289;;;;
2019/12/08 11:53:09;;;;;;;4.1;1.7;;;;;;;9.89;48.08789;934.0516;;;;
2019/12/08 11:55:33;;;;;;;4.7;1.5;;;;;;;9.89;46.71973;934.0555;;;;
2019/12/08 11:58:04;;;;;;;2.6;1.5;;;;;;;9.75;48.16309;934.0362;;;;
2019/12/08 12:00:37;;;;;;;3.3;1.5;;;;;;;9.76;47.55957;934.0052;;;;
2019/12/08 12:03:08;;;;;;;3.7;2;;;;;;;9.8;46.15137;933.9888;;;;
2019/12/08 12:05:41;;;;;;;3.1;1.7;;;;;;;9.82;48.08008;933.9629;;;;
2019/12/08 12:08:03;;;;;;;2.9;1.6;;;;;;;9.76;46.22754;933.8797;;;;
2019/12/08 12:10:41;;;;;;;2.7;1.6;;;;;;;9.74;47.51172;933.8723;;;;
2019/12/08 12:13:10;;;;;;;2.8;1.6;;;;;;;9.62;47.20215;933.8312;;;;
2019/12/08 12:15:37;;;;;;;3.5;1.5;;;;;;;9.71;47.06348;933.8118;;;;
2019/12/08 12:18:07;;;;;;;3.3;1.6;;;;;;;9.79;47.99707;933.7899;;;;
2019/12/08 12:20:34;;;;;;;4.2;1.5;;;;;;;10.03;48.01172;933.7264;;;;
2019/12/08 12:23:05;;;;;;;4;1.3;;;;;;;10.21;47.96289;933.6167;;;;
2019/12/08 12:25:37;;;;;;;5.6;1.4;;;;;;;10.29;46.95801;933.6379;;;;
2019/12/08 12:28:15;;;;;;;2.6;1.4;;;;;;;10.35;47.63672;933.6158;;;;
2019/12/08 12:30:44;;;;;;;2;1.2;;;;;;;10.4;46.75293;933.5969;;;;
2019/12/08 12:33:15;;;;;;;3;1.2;;;;;;;10.5;47.28711;933.4476;;;;
2019/12/08 12:35:48;;;;;;;4.6;1.5;;;;;;;10.46;45.70801;933.4197;;;;
2019/12/08 12:38:20;;;;;;;5.9;1.4;;;;;;;10.41;46.22754;933.3549;;;;
2019/12/08 12:41:14;;;;;;;2.3;1.3;;;;;;;10.46;46.75879;933.3147;;;;
2019/12/08 12:43:38;;;;;;;3;1.4;;;;;;;10.36;45.73145;933.2036;;;;
2019/12/08 12:46:12;;;;;;;1.9;1.4;;;;;;;10.3;45.21289;933.12;;;;
2019/12/08 12:48:50;;;;;;;14.6;5.4;;;;;;;10.01;47.13184;932.9579;;;;
2019/12/08 12:51:16;;;;;;;9.9;4.8;;;;;;;9.84;48.9834;932.9523;;;;
2019/12/08 12:56:22;;;;;;;14;4.5;;;;;;;9.9;48.65723;932.9398;;;;
2019/12/08 12:58:52;;;;;;;10;3.6;;;;;;;9.87;47.23047;932.7855;;;;
2019/12/08 13:01:16;;;;;;;7.9;3.2;;;;;;;9.84;46.59961;932.8116;;;;
2019/12/08 13:03:48;;;;;;;11.5;3.7;;;;;;;9.81;47.53027;932.7142;;;;
2019/12/08 13:06:22;;;;;;;15.2;4;;;;;;;10.06;48.5957;932.7123;;;;
2019/12/08 13:08:55;;;;;;;12.9;3.9;;;;;;;10.29;48.11914;932.6632;;;;
2019/12/08 13:11:21;;;;;;;7.1;3;;;;;;;10.18;46.55664;932.6394;;;;
2019/12/08 13:14:00;;;;;;;5.9;2.9;;;;;;;10.22;45.76172;932.636;;;;
2019/12/08 13:16:31;;;;;;;11.3;3.4;;;;;;;10.39;47.12695;932.6593;;;;
2019/12/08 13:18:56;;;;;;;17.1;3.7;;;;;;;10.64;45.10938;932.6448;;;;
2019/12/08 13:21:28;;;;;;;8.4;3.2;;;;;;;10.66;44.78125;932.5597;;;;
2019/12/08 13:23:55;;;;;;;6.3;2.9;;;;;;;10.74;44.61816;932.5692;;;;
2019/12/08 13:26:21;;;;;;;6.4;3.5;;;;;;;11.4;44.49121;932.5712;;;;
2019/12/08 13:28:49;;;;;;;6.5;3.5;;;;;;;11.99;42.85645;932.5739;;;;
2019/12/08 13:31:13;;;;;;;8.8;4.1;;;;;;;12.46;43.00586;932.4537;;;;
2019/12/08 13:33:45;;;;;;;8.1;3.8;;;;;;;13.76;40.13379;932.6183;;;;
2019/12/08 13:36:07;;;;;;;7.7;3.4;;;;;;;14.91;38.23242;932.5865;;;;
2019/12/08 13:38:30;;;;;;;5.8;3.3;;;;;;;15.81;36.92383;932.4978;;;;
2019/12/08 13:41:23;;;;;;;6.1;3.1;;;;;;;16.07;35.90527;932.497;;;;
2019/12/08 13:43:53;;;;;;;7.1;2.9;;;;;;;15.81;36.2998;932.4673;;;;
2019/12/08 13:46:19;;;;;;;3.8;2.6;;;;;;;15.64;37.52148;932.4314;;;;
2019/12/08 13:48:45;;;;;;;2.7;1.7;;;;;;;15.7;37.13477;932.3675;;;;
2019/12/08 13:51:19;;;;;;;3.9;1.7;;;;;;;15.62;36.7002;932.3971;;;;
2019/12/08 13:53:46;;;;;;;2.4;1.5;;;;;;;14.83;37.86719;932.2288;;;;
2019/12/08 13:56:19;;;;;;;2.7;1.7;;;;;;;13.69;40.45996;932.3734;;;;
2019/12/08 13:58:50;;;;;;;2.3;1.3;;;;;;;12.91;43.31445;932.238;;;;
2019/12/08 14:01:17;;;;;;;3.8;1.6;;;;;;;12.23;44.77148;932.277;;;;
2019/12/08 14:03:46;;;;;;;3.8;1.6;;;;;;;11.72;46.91797;932.2978;;;;
2019/12/08 14:06:10;;;;;;;14.9;4.8;;;;;;;11.05;46.45605;932.2802;;;;
2019/12/08 14:08:35;;;;;;;12.4;3.9;;;;;;;10.72;49.18555;932.3136;;;;
2019/12/08 14:11:01;;;;;;;10.8;5.6;;;;;;;10.64;48.63867;932.3606;;;;
2019/12/08 14:13:30;;;;;;;28.9;8.4;;;;;;;10.11;48.83008;932.3394;;;;
2019/12/08 14:15:58;;;;;;;24.9;8.2;;;;;;;9.57;50.84375;932.3578;;;;
2019/12/08 14:18:22;;;;;;;17;7.7;;;;;;;9.08;51.93457;932.3511;;;;
2019/12/08 14:20:48;;;;;;;23.4;10.6;;;;;;;8.73;53.41504;932.3373;;;;
2019/12/08 14:23:18;;;;;;;20.1;9.3;;;;;;;8.43;54.92285;932.3976;;;;
2019/12/08 14:25:52;;;;;;;19.1;8.3;;;;;;;8.23;55.8418;932.3328;;;;
2019/12/08 14:28:18;;;;;;;20.6;7.9;;;;;;;8.08;56.85449;932.3929;;;;
2019/12/08 14:30:47;;;;;;;15.6;8.1;;;;;;;8.06;57.21484;932.3873;;;;
2019/12/08 14:33:18;;;;;;;23.1;8.5;;;;;;;7.88;58.09863;932.4042;;;;
2019/12/08 14:35:45;;;;;;;15;7.5;;;;;;;7.82;58.46484;932.3442;;;;
2019/12/08 14:38:20;;;;;;;29.7;9.3;;;;;;;7.77;59.04883;932.4069;;;;
2019/12/08 14:40:52;;;;;;;32;9.8;;;;;;;7.59;59.64844;932.3524;;;;
2019/12/08 14:43:24;;;;;;;27.3;12;;;;;;;7.57;59.73535;932.3094;;;;
2019/12/08 14:45:47;;;;;;;19.3;10.7;;;;;;;7.32;60.25684;932.3285;;;;
2019/12/08 14:48:28;;;;;;;23.1;10.4;;;;;;;7.09;60.8584;932.361;;;;
2019/12/08 14:51:04;;;;;;;18.7;9.3;;;;;;;6.87;60.91699;932.2178;;;;
2019/12/08 14:53:35;;;;;;;16.7;10.1;;;;;;;6.92;61.42188;932.3166;;;;
2019/12/08 14:56:01;;;;;;;32.5;12.1;;;;;;;6.86;61.96973;932.2137;;;;
2019/12/08 14:59:14;;;;;;;20.8;11.6;;;;;;;6.89;61.65625;932.2481;;;;
2019/12/08 15:01:36;;;;;;;22.2;12.6;;;;;;;6.74;62.38184;932.253;;;;
2019/12/08 15:04:10;;;;;;;22.7;11.4;;;;;;;6.6;62.55273;932.1983;;;;
2019/12/08 15:06:46;;;;;;;19.8;10.2;;;;;;;6.35;63.09375;932.2648;;;;
2019/12/08 15:09:12;;;;;;;20.8;11.3;;;;;;;6.35;63.16211;932.1454;;;;
2019/12/08 15:11:38;;;;;;;30.8;16.2;;;;;;;6.29;63.47852;932.1682;;;;
2019/12/08 15:14:14;;;;;;;33;19.5;;;;;;;6.11;64.06348;932.1525;;;;
2019/12/08 15:16:41;;;;;;;34.9;19.7;;;;;;;6.19;64.33594;932.1403;;;;
2019/12/08 15:19:13;;;;;;;50.2;27;;;;;;;6.22;64.23926;932.1395;;;;
2019/12/08 15:21:49;;;;;;;51.3;31;;;;;;;6.2;64.49512;932.0583;;;;
2019/12/08 15:24:22;;;;;;;35.5;14.9;;;;;;;6.19;65.10449;932.1964;;;;
2019/12/08 15:27:15;;;;;;;26.9;11.5;;;;;;;6.16;65.7998;932.1944;;;;
2019/12/08 15:29:33;;;;;;;20;11.3;;;;;;;6.18;65.90527;932.2389;;;;
2019/12/08 15:32:00;;;;;;;36.2;20.2;;;;;;;6.18;66.00781;932.2698;;;;
2019/12/08 15:34:31;;;;;;;29.2;12.5;;;;;;;6.16;65.67578;932.2172;;;;
2019/12/08 15:36:56;;;;;;;19.7;11.1;;;;;;;5.9;66.12207;932.1772;;;;
2019/12/08 15:39:28;;;;;;;23.7;15.5;;;;;;;5.58;67.09961;932.1976;;;;
2019/12/08 15:41:59;;;;;;;24.7;15.7;;;;;;;5.22;68.64551;932.1717;;;;
2019/12/08 15:44:32;;;;;;;29.6;19.2;;;;;;;5.17;69.12305;932.1902;;;;
2019/12/08 15:46:59;;;;;;;21.2;12.9;;;;;;;4.93;70.43457;932.1479;;;;
2019/12/08 15:49:46;;;;;;;29.2;16.6;;;;;;;4.67;70.89941;932.1707;;;;
2019/12/08 15:52:03;;;;;;;37.2;25;;;;;;;4.78;71.00586;932.2147;;;;
2019/12/08 15:54:35;;;;;;;88.5;60.8;;;;;;;4.87;71.91406;932.2107;;;;
2019/12/08 15:57:09;;;;;;;24.4;14.6;;;;;;;4.9;70.72461;932.2664;;;;
2019/12/08 15:59:42;;;;;;;22.4;14;;;;;;;4.85;70.82813;932.2149;;;;
2019/12/08 16:02:15;;;;;;;34.3;21.4;;;;;;;4.77;70.30762;932.2462;;;;
2019/12/08 16:04:40;;;;;;;21.9;13.2;;;;;;;4.86;69.70313;932.2089;;;;